sensor_id;sensor_type;location;lat;lon;timestamp;P1;durP1;ratioP1;P2;durP2;ratioP2
74042;SDS011;62384;53.600;10.040;2023-02-28T00:00:18;4.38;;;1.58;;
74042;SDS011;62384;53.600;10.040;2023-02-28T00:02:45;3.35;;;1.58;;
74042;SDS011;62384;53.600;10.040;2023-02-28T00:05:12;2.70;;;1.40;;
74042;SDS011;62384;53.600;10.040;2023-02-28T00:07:39;3.95;;;1.77;;
74042;SDS011;62384;53.600;10.040;2023-02-28T00:10:06;5.30;;;1.75;;
74042;SDS011;62384;53.600;10.040;2023-02-28T00:12:32;5.03;;;1.85;;
74042;SDS011;62384;53.600;10.040;2023-02-28T00:14:58;8.27;;;2.05;;
74042;SDS011;62384;53.600;10.040;2023-02-28T00:17:24;6.72;;;1.60;;
74042;SDS011;62384;53.600;10.040;2023-02-28T00:19:50;4.50;;;1.85;;
74042;SDS011;62384;53.600;10.040;2023-02-28T00:22:17;3.80;;;1.65;;
74042;SDS011;62384;53.600;10.040;2023-02-28T00:24:43;9.20;;;1.92;;
74042;SDS011;62384;53.600;10.040;2023-02-28T00:27:09;5.72;;;2.17;;
74042;SDS011;62384;53.600;10.040;2023-02-28T00:29:34;4.63;;;1.73;;
74042;SDS011;62384;53.600;10.040;2023-02-28T00:32:00;3.92;;;2.08;;
74042;SDS011;62384;53.600;10.040;2023-02-28T00:34:25;3.58;;;1.50;;
74042;SDS011;62384;53.600;10.040;2023-02-28T00:36:50;3.33;;;1.95;;
74042;SDS011;62384;53.600;10.040;2023-02-28T00:39:16;3.80;;;2.15;;
74042;SDS011;62384;53.600;10.040;2023-02-28T00:41:41;5.47;;;1.58;;
74042;SDS011;62384;53.600;10.040;2023-02-28T00:44:06;6.65;;;1.92;;
74042;SDS011;62384;53.600;10.040;2023-02-28T00:46:32;4.53;;;1.73;;
74042;SDS011;62384;53.600;10.040;2023-02-28T00:48:57;4.18;;;1.70;;
74042;SDS011;62384;53.600;10.040;2023-02-28T00:51:23;3.80;;;1.40;;
74042;SDS011;62384;53.600;10.040;2023-02-28T00:53:48;4.97;;;1.40;;
74042;SDS011;62384;53.600;10.040;2023-02-28T00:56:14;4.07;;;1.48;;
74042;SDS011;62384;53.600;10.040;2023-02-28T00:58:41;5.07;;;1.73;;
74042;SDS011;62384;53.600;10.040;2023-02-28T01:01:06;4.97;;;1.65;;
74042;SDS011;62384;53.600;10.040;2023-02-28T01:03:32;3.22;;;1.40;;
74042;SDS011;62384;53.600;10.040;2023-02-28T01:05:57;2.42;;;1.10;;
74042;SDS011;62384;53.600;10.040;2023-02-28T01:08:23;5.07;;;1.50;;
74042;SDS011;62384;53.600;10.040;2023-02-28T01:10:48;8.00;;;1.73;;
74042;SDS011;62384;53.600;10.040;2023-02-28T01:13:14;3.30;;;1.27;;
74042;SDS011;62384;53.600;10.040;2023-02-28T01:15:41;8.25;;;1.30;;
74042;SDS011;62384;53.600;10.040;2023-02-28T01:18:10;3.55;;;1.13;;
74042;SDS011;62384;53.600;10.040;2023-02-28T01:20:38;5.63;;;1.60;;
74042;SDS011;62384;53.600;10.040;2023-02-28T01:23:04;4.43;;;1.42;;
74042;SDS011;62384;53.600;10.040;2023-02-28T01:25:29;3.78;;;1.52;;
74042;SDS011;62384;53.600;10.040;2023-02-28T01:27:54;3.47;;;1.60;;
74042;SDS011;62384;53.600;10.040;2023-02-28T01:30:20;6.63;;;1.88;;
74042;SDS011;62384;53.600;10.040;2023-02-28T01:32:45;4.28;;;1.33;;
74042;SDS011;62384;53.600;10.040;2023-02-28T01:35:10;4.60;;;1.17;;
74042;SDS011;62384;53.600;10.040;2023-02-28T01:37:36;6.28;;;1.55;;
74042;SDS011;62384;53.600;10.040;2023-02-28T01:40:01;5.05;;;1.20;;
74042;SDS011;62384;53.600;10.040;2023-02-28T01:42:27;3.30;;;1.30;;
74042;SDS011;62384;53.600;10.040;2023-02-28T01:44:57;3.35;;;1.15;;
74042;SDS011;62384;53.600;10.040;2023-02-28T01:47:42;3.47;;;1.30;;
74042;SDS011;62384;53.600;10.040;2023-02-28T01:50:12;2.33;;;1.40;;
74042;SDS011;62384;53.600;10.040;2023-02-28T01:52:41;3.63;;;1.52;;
74042;SDS011;62384;53.600;10.040;2023-02-28T01:55:07;3.53;;;1.55;;
74042;SDS011;62384;53.600;10.040;2023-02-28T01:57:37;4.28;;;1.90;;
74042;SDS011;62384;53.600;10.040;2023-02-28T02:00:16;8.10;;;1.75;;
74042;SDS011;62384;53.600;10.040;2023-02-28T02:02:44;5.38;;;1.75;;
74042;SDS011;62384;53.600;10.040;2023-02-28T02:05:14;2.72;;;1.45;;
74042;SDS011;62384;53.600;10.040;2023-02-28T02:07:42;2.67;;;1.30;;
74042;SDS011;62384;53.600;10.040;2023-02-28T02:10:20;2.80;;;1.42;;
74042;SDS011;62384;53.600;10.040;2023-02-28T02:13:00;4.53;;;1.80;;
74042;SDS011;62384;53.600;10.040;2023-02-28T02:18:47;5.70;;;2.15;;
74042;SDS011;62384;53.600;10.040;2023-02-28T02:24:12;4.07;;;2.00;;
74042;SDS011;62384;53.600;10.040;2023-02-28T02:27:16;6.63;;;1.70;;
74042;SDS011;62384;53.600;10.040;2023-02-28T02:30:01;5.47;;;2.13;;
74042;SDS011;62384;53.600;10.040;2023-02-28T02:38:36;3.20;;;1.77;;
74042;SDS011;62384;53.600;10.040;2023-02-28T02:41:13;7.10;;;2.50;;
74042;SDS011;62384;53.600;10.040;2023-02-28T02:44:13;5.07;;;1.85;;
74042;SDS011;62384;53.600;10.040;2023-02-28T02:46:51;6.40;;;2.17;;
74042;SDS011;62384;53.600;10.040;2023-02-28T02:49:26;6.63;;;2.10;;
74042;SDS011;62384;53.600;10.040;2023-02-28T02:51:55;4.78;;;2.03;;
74042;SDS011;62384;53.600;10.040;2023-02-28T02:56:57;8.88;;;1.90;;
74042;SDS011;62384;53.600;10.040;2023-02-28T02:59:28;5.97;;;2.50;;
74042;SDS011;62384;53.600;10.040;2023-02-28T03:01:56;4.78;;;2.95;;
74042;SDS011;62384;53.600;10.040;2023-02-28T03:04:24;5.25;;;2.25;;
74042;SDS011;62384;53.600;10.040;2023-02-28T03:06:55;4.03;;;2.58;;
74042;SDS011;62384;53.600;10.040;2023-02-28T03:09:21;5.55;;;2.00;;
74042;SDS011;62384;53.600;10.040;2023-02-28T03:11:47;3.63;;;1.90;;
74042;SDS011;62384;53.600;10.040;2023-02-28T03:14:17;7.63;;;2.55;;
74042;SDS011;62384;53.600;10.040;2023-02-28T03:17:11;4.60;;;2.42;;
74042;SDS011;62384;53.600;10.040;2023-02-28T03:19:45;4.72;;;2.17;;
74042;SDS011;62384;53.600;10.040;2023-02-28T03:27:36;5.32;;;2.03;;
74042;SDS011;62384;53.600;10.040;2023-02-28T03:30:10;8.27;;;2.83;;
74042;SDS011;62384;53.600;10.040;2023-02-28T03:35:38;7.32;;;2.65;;
74042;SDS011;62384;53.600;10.040;2023-02-28T03:38:10;9.17;;;2.67;;
74042;SDS011;62384;53.600;10.040;2023-02-28T03:40:43;5.05;;;2.80;;
74042;SDS011;62384;53.600;10.040;2023-02-28T03:43:15;4.85;;;2.55;;
74042;SDS011;62384;53.600;10.040;2023-02-28T03:45:45;5.43;;;2.35;;
74042;SDS011;62384;53.600;10.040;2023-02-28T03:48:19;8.13;;;2.42;;
74042;SDS011;62384;53.600;10.040;2023-02-28T03:50:49;4.85;;;2.60;;
74042;SDS011;62384;53.600;10.040;2023-02-28T03:53:21;4.53;;;2.63;;
74042;SDS011;62384;53.600;10.040;2023-02-28T03:55:55;3.80;;;2.38;;
74042;SDS011;62384;53.600;10.040;2023-02-28T03:58:35;7.15;;;2.95;;
74042;SDS011;62384;53.600;10.040;2023-02-28T04:03:55;8.13;;;2.90;;
74042;SDS011;62384;53.600;10.040;2023-02-28T04:06:21;9.50;;;2.88;;
74042;SDS011;62384;53.600;10.040;2023-02-28T04:08:47;6.13;;;2.95;;
74042;SDS011;62384;53.600;10.040;2023-02-28T04:11:21;8.48;;;3.28;;
74042;SDS011;62384;53.600;10.040;2023-02-28T04:13:49;5.88;;;2.53;;
74042;SDS011;62384;53.600;10.040;2023-02-28T04:16:15;7.00;;;3.00;;
74042;SDS011;62384;53.600;10.040;2023-02-28T04:18:41;7.22;;;3.53;;
74042;SDS011;62384;53.600;10.040;2023-02-28T04:21:08;6.72;;;2.78;;
74042;SDS011;62384;53.600;10.040;2023-02-28T04:23:34;6.05;;;3.30;;
74042;SDS011;62384;53.600;10.040;2023-02-28T04:26:05;7.03;;;3.05;;
74042;SDS011;62384;53.600;10.040;2023-02-28T04:28:31;9.95;;;3.50;;
74042;SDS011;62384;53.600;10.040;2023-02-28T04:30:58;7.78;;;3.30;;
74042;SDS011;62384;53.600;10.040;2023-02-28T04:33:29;6.82;;;3.80;;
74042;SDS011;62384;53.600;10.040;2023-02-28T04:36:03;8.82;;;3.42;;
74042;SDS011;62384;53.600;10.040;2023-02-28T04:38:37;6.90;;;3.40;;
74042;SDS011;62384;53.600;10.040;2023-02-28T04:41:03;8.35;;;3.60;;
74042;SDS011;62384;53.600;10.040;2023-02-28T04:43:29;12.80;;;3.95;;
74042;SDS011;62384;53.600;10.040;2023-02-28T04:45:56;8.07;;;3.65;;
74042;SDS011;62384;53.600;10.040;2023-02-28T04:48:25;10.75;;;3.78;;
74042;SDS011;62384;53.600;10.040;2023-02-28T04:50:52;7.07;;;4.25;;
74042;SDS011;62384;53.600;10.040;2023-02-28T04:53:18;7.28;;;3.25;;
74042;SDS011;62384;53.600;10.040;2023-02-28T04:55:44;10.10;;;4.63;;
74042;SDS011;62384;53.600;10.040;2023-02-28T04:58:10;8.93;;;3.95;;
74042;SDS011;62384;53.600;10.040;2023-02-28T05:00:36;8.38;;;3.60;;
74042;SDS011;62384;53.600;10.040;2023-02-28T05:03:01;8.88;;;3.88;;
74042;SDS011;62384;53.600;10.040;2023-02-28T05:05:26;9.85;;;4.40;;
74042;SDS011;62384;53.600;10.040;2023-02-28T05:07:52;8.55;;;3.75;;
74042;SDS011;62384;53.600;10.040;2023-02-28T05:10:18;10.05;;;4.63;;
74042;SDS011;62384;53.600;10.040;2023-02-28T05:12:44;15.18;;;4.10;;
74042;SDS011;62384;53.600;10.040;2023-02-28T05:15:12;10.52;;;3.65;;
74042;SDS011;62384;53.600;10.040;2023-02-28T05:17:38;7.45;;;3.83;;
74042;SDS011;62384;53.600;10.040;2023-02-28T05:20:04;11.02;;;3.63;;
74042;SDS011;62384;53.600;10.040;2023-02-28T05:22:30;6.03;;;4.43;;
74042;SDS011;62384;53.600;10.040;2023-02-28T05:24:55;11.32;;;4.15;;
74042;SDS011;62384;53.600;10.040;2023-02-28T05:27:21;8.63;;;3.95;;
74042;SDS011;62384;53.600;10.040;2023-02-28T05:29:46;6.97;;;3.90;;
74042;SDS011;62384;53.600;10.040;2023-02-28T05:32:14;6.97;;;3.90;;
74042;SDS011;62384;53.600;10.040;2023-02-28T05:34:39;6.93;;;4.47;;
74042;SDS011;62384;53.600;10.040;2023-02-28T05:37:05;7.78;;;3.67;;
74042;SDS011;62384;53.600;10.040;2023-02-28T05:39:31;10.75;;;4.70;;
74042;SDS011;62384;53.600;10.040;2023-02-28T05:41:57;14.52;;;4.97;;
74042;SDS011;62384;53.600;10.040;2023-02-28T05:44:22;10.02;;;4.55;;
74042;SDS011;62384;53.600;10.040;2023-02-28T05:46:47;7.03;;;3.90;;
74042;SDS011;62384;53.600;10.040;2023-02-28T05:49:13;8.27;;;4.15;;
74042;SDS011;62384;53.600;10.040;2023-02-28T05:51:38;8.40;;;3.95;;
74042;SDS011;62384;53.600;10.040;2023-02-28T05:54:04;11.35;;;4.07;;
74042;SDS011;62384;53.600;10.040;2023-02-28T05:56:31;7.75;;;4.75;;
74042;SDS011;62384;53.600;10.040;2023-02-28T05:58:56;10.45;;;4.85;;
74042;SDS011;62384;53.600;10.040;2023-02-28T06:01:23;11.13;;;4.78;;
74042;SDS011;62384;53.600;10.040;2023-02-28T06:03:59;8.25;;;4.15;;
74042;SDS011;62384;53.600;10.040;2023-02-28T06:06:26;13.63;;;4.93;;
74042;SDS011;62384;53.600;10.040;2023-02-28T06:08:51;9.90;;;4.30;;
74042;SDS011;62384;53.600;10.040;2023-02-28T06:11:16;8.90;;;4.80;;
74042;SDS011;62384;53.600;10.040;2023-02-28T06:13:42;8.98;;;4.75;;
74042;SDS011;62384;53.600;10.040;2023-02-28T06:16:11;12.10;;;4.55;;
74042;SDS011;62384;53.600;10.040;2023-02-28T06:18:36;12.88;;;5.43;;
74042;SDS011;62384;53.600;10.040;2023-02-28T06:21:02;9.32;;;4.65;;
74042;SDS011;62384;53.600;10.040;2023-02-28T06:23:27;9.80;;;5.13;;
74042;SDS011;62384;53.600;10.040;2023-02-28T06:25:53;9.02;;;5.38;;
74042;SDS011;62384;53.600;10.040;2023-02-28T06:28:18;13.57;;;5.22;;
74042;SDS011;62384;53.600;10.040;2023-02-28T06:30:44;11.52;;;4.95;;
74042;SDS011;62384;53.600;10.040;2023-02-28T06:33:09;10.75;;;5.40;;
74042;SDS011;62384;53.600;10.040;2023-02-28T06:35:35;11.07;;;4.95;;
74042;SDS011;62384;53.600;10.040;2023-02-28T06:38:00;12.57;;;5.18;;
74042;SDS011;62384;53.600;10.040;2023-02-28T06:40:25;9.10;;;4.57;;
74042;SDS011;62384;53.600;10.040;2023-02-28T06:42:51;11.80;;;6.03;;
74042;SDS011;62384;53.600;10.040;2023-02-28T06:45:16;14.00;;;5.22;;
74042;SDS011;62384;53.600;10.040;2023-02-28T06:47:42;12.25;;;5.63;;
74042;SDS011;62384;53.600;10.040;2023-02-28T06:50:08;11.27;;;5.35;;
74042;SDS011;62384;53.600;10.040;2023-02-28T06:52:35;9.43;;;4.70;;
74042;SDS011;62384;53.600;10.040;2023-02-28T06:55:06;13.55;;;5.57;;
74042;SDS011;62384;53.600;10.040;2023-02-28T06:57:33;8.88;;;4.97;;
74042;SDS011;62384;53.600;10.040;2023-02-28T07:00:01;12.80;;;5.68;;
74042;SDS011;62384;53.600;10.040;2023-02-28T07:02:32;13.98;;;5.38;;
74042;SDS011;62384;53.600;10.040;2023-02-28T07:04:58;14.32;;;5.68;;
74042;SDS011;62384;53.600;10.040;2023-02-28T07:07:23;15.88;;;5.95;;
74042;SDS011;62384;53.600;10.040;2023-02-28T07:09:49;13.43;;;5.43;;
74042;SDS011;62384;53.600;10.040;2023-02-28T07:12:14;13.73;;;5.80;;
74042;SDS011;62384;53.600;10.040;2023-02-28T07:14:40;11.85;;;5.78;;
74042;SDS011;62384;53.600;10.040;2023-02-28T07:17:06;13.00;;;5.70;;
74042;SDS011;62384;53.600;10.040;2023-02-28T07:19:32;12.48;;;6.38;;
74042;SDS011;62384;53.600;10.040;2023-02-28T07:21:58;11.63;;;5.13;;
74042;SDS011;62384;53.600;10.040;2023-02-28T07:24:23;11.05;;;5.38;;
74042;SDS011;62384;53.600;10.040;2023-02-28T07:26:52;10.90;;;4.72;;
74042;SDS011;62384;53.600;10.040;2023-02-28T07:29:17;7.82;;;4.75;;
74042;SDS011;62384;53.600;10.040;2023-02-28T07:31:42;12.80;;;5.00;;
74042;SDS011;62384;53.600;10.040;2023-02-28T07:34:07;10.52;;;5.95;;
74042;SDS011;62384;53.600;10.040;2023-02-28T07:36:33;10.75;;;5.07;;
74042;SDS011;62384;53.600;10.040;2023-02-28T07:38:58;11.32;;;6.05;;
74042;SDS011;62384;53.600;10.040;2023-02-28T07:41:23;11.07;;;4.90;;
74042;SDS011;62384;53.600;10.040;2023-02-28T07:43:53;14.88;;;5.78;;
74042;SDS011;62384;53.600;10.040;2023-02-28T07:46:21;11.13;;;4.85;;
74042;SDS011;62384;53.600;10.040;2023-02-28T07:48:46;12.45;;;5.35;;
74042;SDS011;62384;53.600;10.040;2023-02-28T07:51:12;14.02;;;5.80;;
74042;SDS011;62384;53.600;10.040;2023-02-28T07:53:37;10.98;;;5.32;;
74042;SDS011;62384;53.600;10.040;2023-02-28T07:56:02;8.90;;;5.10;;
74042;SDS011;62384;53.600;10.040;2023-02-28T07:58:28;10.80;;;5.25;;
74042;SDS011;62384;53.600;10.040;2023-02-28T08:00:54;14.82;;;6.70;;
74042;SDS011;62384;53.600;10.040;2023-02-28T08:03:20;13.05;;;5.47;;
74042;SDS011;62384;53.600;10.040;2023-02-28T08:05:48;14.23;;;5.55;;
74042;SDS011;62384;53.600;10.040;2023-02-28T08:08:15;14.43;;;5.65;;
74042;SDS011;62384;53.600;10.040;2023-02-28T08:10:43;9.52;;;5.50;;
74042;SDS011;62384;53.600;10.040;2023-02-28T08:13:27;13.02;;;5.80;;
74042;SDS011;62384;53.600;10.040;2023-02-28T08:15:54;11.88;;;6.25;;
74042;SDS011;62384;53.600;10.040;2023-02-28T08:18:19;12.68;;;5.82;;
74042;SDS011;62384;53.600;10.040;2023-02-28T08:20:45;13.40;;;6.18;;
74042;SDS011;62384;53.600;10.040;2023-02-28T08:23:10;10.77;;;5.82;;
74042;SDS011;62384;53.600;10.040;2023-02-28T08:25:36;16.08;;;5.55;;
74042;SDS011;62384;53.600;10.040;2023-02-28T08:28:01;11.57;;;5.90;;
74042;SDS011;62384;53.600;10.040;2023-02-28T08:30:26;20.13;;;6.90;;
74042;SDS011;62384;53.600;10.040;2023-02-28T08:32:52;10.23;;;6.20;;
74042;SDS011;62384;53.600;10.040;2023-02-28T08:35:17;14.80;;;6.13;;
74042;SDS011;62384;53.600;10.040;2023-02-28T08:37:42;10.68;;;5.43;;
74042;SDS011;62384;53.600;10.040;2023-02-28T08:40:08;17.58;;;5.65;;
74042;SDS011;62384;53.600;10.040;2023-02-28T08:42:34;10.35;;;4.97;;
74042;SDS011;62384;53.600;10.040;2023-02-28T08:44:59;19.75;;;6.70;;
74042;SDS011;62384;53.600;10.040;2023-02-28T08:47:24;13.35;;;5.60;;
74042;SDS011;62384;53.600;10.040;2023-02-28T08:49:50;10.15;;;5.30;;
74042;SDS011;62384;53.600;10.040;2023-02-28T08:52:15;9.98;;;4.95;;
74042;SDS011;62384;53.600;10.040;2023-02-28T08:54:40;9.93;;;4.78;;
74042;SDS011;62384;53.600;10.040;2023-02-28T08:57:06;9.68;;;5.10;;
74042;SDS011;62384;53.600;10.040;2023-02-28T08:59:31;11.27;;;4.85;;
74042;SDS011;62384;53.600;10.040;2023-02-28T09:01:57;11.40;;;4.68;;
74042;SDS011;62384;53.600;10.040;2023-02-28T09:04:22;9.15;;;4.22;;
74042;SDS011;62384;53.600;10.040;2023-02-28T09:06:47;10.10;;;3.83;;
74042;SDS011;62384;53.600;10.040;2023-02-28T09:09:13;8.85;;;3.78;;
74042;SDS011;62384;53.600;10.040;2023-02-28T09:11:39;6.90;;;3.65;;
74042;SDS011;62384;53.600;10.040;2023-02-28T09:14:04;7.40;;;3.63;;
74042;SDS011;62384;53.600;10.040;2023-02-28T09:16:30;5.82;;;3.47;;
74042;SDS011;62384;53.600;10.040;2023-02-28T09:18:57;4.93;;;2.30;;
74042;SDS011;62384;53.600;10.040;2023-02-28T09:21:22;9.27;;;3.00;;
74042;SDS011;62384;53.600;10.040;2023-02-28T09:23:48;6.32;;;2.40;;
74042;SDS011;62384;53.600;10.040;2023-02-28T09:26:15;3.33;;;2.22;;
74042;SDS011;62384;53.600;10.040;2023-02-28T09:28:42;3.63;;;2.15;;
74042;SDS011;62384;53.600;10.040;2023-02-28T09:31:12;9.45;;;2.40;;
74042;SDS011;62384;53.600;10.040;2023-02-28T09:33:41;6.45;;;2.05;;
74042;SDS011;62384;53.600;10.040;2023-02-28T09:36:07;3.15;;;2.25;;
74042;SDS011;62384;53.600;10.040;2023-02-28T09:38:33;3.83;;;1.58;;
74042;SDS011;62384;53.600;10.040;2023-02-28T09:40:59;3.67;;;1.55;;
74042;SDS011;62384;53.600;10.040;2023-02-28T09:43:36;2.75;;;1.60;;
74042;SDS011;62384;53.600;10.040;2023-02-28T09:46:12;3.50;;;1.80;;
74042;SDS011;62384;53.600;10.040;2023-02-28T09:48:45;3.95;;;1.92;;
74042;SDS011;62384;53.600;10.040;2023-02-28T09:54:13;5.65;;;1.58;;
74042;SDS011;62384;53.600;10.040;2023-02-28T09:56:43;2.35;;;1.08;;
74042;SDS011;62384;53.600;10.040;2023-02-28T10:05:13;3.40;;;1.50;;
74042;SDS011;62384;53.600;10.040;2023-02-28T10:10:18;2.20;;;1.13;;
74042;SDS011;62384;53.600;10.040;2023-02-28T10:12:52;2.75;;;1.08;;
74042;SDS011;62384;53.600;10.040;2023-02-28T10:15:21;1.83;;;0.80;;
74042;SDS011;62384;53.600;10.040;2023-02-28T10:17:51;1.77;;;0.77;;
74042;SDS011;62384;53.600;10.040;2023-02-28T10:20:22;3.58;;;0.85;;
74042;SDS011;62384;53.600;10.040;2023-02-28T10:25:38;1.52;;;0.93;;
74042;SDS011;62384;53.600;10.040;2023-02-28T10:30:32;4.18;;;1.20;;
74042;SDS011;62384;53.600;10.040;2023-02-28T10:32:57;2.80;;;1.27;;
74042;SDS011;62384;53.600;10.040;2023-02-28T10:35:26;3.35;;;1.40;;
74042;SDS011;62384;53.600;10.040;2023-02-28T10:37:55;1.83;;;1.17;;
74042;SDS011;62384;53.600;10.040;2023-02-28T10:42:54;5.38;;;1.20;;
74042;SDS011;62384;53.600;10.040;2023-02-28T10:45:21;5.13;;;1.17;;
74042;SDS011;62384;53.600;10.040;2023-02-28T10:47:49;3.13;;;1.13;;
74042;SDS011;62384;53.600;10.040;2023-02-28T10:55:35;2.67;;;1.17;;
74042;SDS011;62384;53.600;10.040;2023-02-28T10:58:01;2.70;;;0.90;;
74042;SDS011;62384;53.600;10.040;2023-02-28T11:00:31;13.18;;;1.20;;
74042;SDS011;62384;53.600;10.040;2023-02-28T11:02:59;1.30;;;0.77;;
74042;SDS011;62384;53.600;10.040;2023-02-28T11:07:53;3.30;;;1.10;;
74042;SDS011;62384;53.600;10.040;2023-02-28T11:10:20;2.22;;;0.95;;
74042;SDS011;62384;53.600;10.040;2023-02-28T11:12:48;2.95;;;0.88;;
74042;SDS011;62384;53.600;10.040;2023-02-28T11:17:45;1.70;;;0.90;;
74042;SDS011;62384;53.600;10.040;2023-02-28T11:20:23;2.38;;;1.00;;
74042;SDS011;62384;53.600;10.040;2023-02-28T11:22:51;2.05;;;1.20;;
74042;SDS011;62384;53.600;10.040;2023-02-28T11:25:30;3.83;;;0.93;;
74042;SDS011;62384;53.600;10.040;2023-02-28T11:27:58;1.38;;;0.90;;
74042;SDS011;62384;53.600;10.040;2023-02-28T11:30:36;2.08;;;1.20;;
74042;SDS011;62384;53.600;10.040;2023-02-28T11:36:24;1.05;;;0.95;;
74042;SDS011;62384;53.600;10.040;2023-02-28T11:38:51;3.53;;;1.33;;
74042;SDS011;62384;53.600;10.040;2023-02-28T11:44:32;2.65;;;1.17;;
74042;SDS011;62384;53.600;10.040;2023-02-28T11:47:29;1.77;;;0.90;;
74042;SDS011;62384;53.600;10.040;2023-02-28T11:58:00;6.67;;;1.53;;
74042;SDS011;62384;53.600;10.040;2023-02-28T12:00:44;3.83;;;1.27;;
74042;SDS011;62384;53.600;10.040;2023-02-28T12:06:15;3.75;;;1.58;;
74042;SDS011;62384;53.600;10.040;2023-02-28T12:08:44;2.85;;;1.13;;
74042;SDS011;62384;53.600;10.040;2023-02-28T12:28:36;1.80;;;1.20;;
74042;SDS011;62384;53.600;10.040;2023-02-28T12:31:14;3.58;;;1.50;;
74042;SDS011;62384;53.600;10.040;2023-02-28T12:33:45;2.50;;;1.52;;
74042;SDS011;62384;53.600;10.040;2023-02-28T12:36:16;1.73;;;1.45;;
74042;SDS011;62384;53.600;10.040;2023-02-28T12:38:45;2.78;;;1.50;;
74042;SDS011;62384;53.600;10.040;2023-02-28T12:41:15;5.47;;;1.48;;
74042;SDS011;62384;53.600;10.040;2023-02-28T12:44:06;3.70;;;1.70;;
74042;SDS011;62384;53.600;10.040;2023-02-28T12:46:34;2.40;;;1.48;;
74042;SDS011;62384;53.600;10.040;2023-02-28T12:49:18;3.58;;;1.65;;
74042;SDS011;62384;53.600;10.040;2023-02-28T12:51:49;3.58;;;1.52;;
74042;SDS011;62384;53.600;10.040;2023-02-28T12:54:20;4.95;;;1.98;;
74042;SDS011;62384;53.600;10.040;2023-02-28T12:59:38;4.43;;;1.60;;
74042;SDS011;62384;53.600;10.040;2023-02-28T13:10:53;3.22;;;1.65;;
74042;SDS011;62384;53.600;10.040;2023-02-28T13:13:22;2.65;;;1.73;;
74042;SDS011;62384;53.600;10.040;2023-02-28T13:18:44;7.90;;;1.70;;
74042;SDS011;62384;53.600;10.040;2023-02-28T13:21:23;4.88;;;2.10;;
74042;SDS011;62384;53.600;10.040;2023-02-28T13:26:20;9.75;;;2.03;;
74042;SDS011;62384;53.600;10.040;2023-02-28T13:29:00;4.13;;;1.88;;
74042;SDS011;62384;53.600;10.040;2023-02-28T13:31:29;3.50;;;1.52;;
74042;SDS011;62384;53.600;10.040;2023-02-28T13:36:23;2.60;;;1.58;;
74042;SDS011;62384;53.600;10.040;2023-02-28T13:38:54;11.50;;;1.75;;
74042;SDS011;62384;53.600;10.040;2023-02-28T13:44:42;2.38;;;1.58;;
74042;SDS011;62384;53.600;10.040;2023-02-28T13:51:49;8.82;;;2.03;;
74042;SDS011;62384;53.600;10.040;2023-02-28T13:57:06;2.80;;;1.40;;
74042;SDS011;62384;53.600;10.040;2023-02-28T14:02:29;2.63;;;1.60;;
74042;SDS011;62384;53.600;10.040;2023-02-28T14:05:27;4.65;;;1.90;;
74042;SDS011;62384;53.600;10.040;2023-02-28T14:07:56;3.53;;;1.77;;
74042;SDS011;62384;53.600;10.040;2023-02-28T14:10:24;5.35;;;2.00;;
74042;SDS011;62384;53.600;10.040;2023-02-28T14:16:01;2.22;;;1.40;;
74042;SDS011;62384;53.600;10.040;2023-02-28T14:18:37;2.53;;;1.48;;
74042;SDS011;62384;53.600;10.040;2023-02-28T14:21:23;3.22;;;1.75;;
74042;SDS011;62384;53.600;10.040;2023-02-28T14:26:35;3.95;;;1.92;;
74042;SDS011;62384;53.600;10.040;2023-02-28T14:38:36;3.35;;;1.50;;
74042;SDS011;62384;53.600;10.040;2023-02-28T14:41:43;4.10;;;1.65;;
74042;SDS011;62384;53.600;10.040;2023-02-28T14:44:23;4.72;;;1.70;;
74042;SDS011;62384;53.600;10.040;2023-02-28T14:46:52;3.55;;;1.73;;
74042;SDS011;62384;53.600;10.040;2023-02-28T14:49:21;3.40;;;1.40;;
74042;SDS011;62384;53.600;10.040;2023-02-28T14:52:01;2.92;;;1.60;;
74042;SDS011;62384;53.600;10.040;2023-02-28T14:54:30;2.40;;;1.50;;
74042;SDS011;62384;53.600;10.040;2023-02-28T14:56:56;3.88;;;1.75;;
74042;SDS011;62384;53.600;10.040;2023-02-28T14:59:27;3.13;;;1.63;;
74042;SDS011;62384;53.600;10.040;2023-02-28T15:02:14;2.80;;;1.50;;
74042;SDS011;62384;53.600;10.040;2023-02-28T15:07:19;4.68;;;1.40;;
74042;SDS011;62384;53.600;10.040;2023-02-28T15:10:06;3.55;;;1.40;;
74042;SDS011;62384;53.600;10.040;2023-02-28T15:12:36;3.13;;;1.55;;
74042;SDS011;62384;53.600;10.040;2023-02-28T15:15:02;6.15;;;1.70;;
74042;SDS011;62384;53.600;10.040;2023-02-28T15:17:28;3.58;;;1.13;;
74042;SDS011;62384;53.600;10.040;2023-02-28T15:19:54;3.08;;;1.20;;
74042;SDS011;62384;53.600;10.040;2023-02-28T15:22:31;4.07;;;1.10;;
74042;SDS011;62384;53.600;10.040;2023-02-28T15:25:01;1.60;;;1.20;;
74042;SDS011;62384;53.600;10.040;2023-02-28T15:27:32;6.03;;;1.20;;
74042;SDS011;62384;53.600;10.040;2023-02-28T15:29:59;2.78;;;1.58;;
74042;SDS011;62384;53.600;10.040;2023-02-28T15:34:55;2.28;;;1.40;;
74042;SDS011;62384;53.600;10.040;2023-02-28T15:37:40;3.78;;;1.40;;
74042;SDS011;62384;53.600;10.040;2023-02-28T15:45:47;2.03;;;1.30;;
74042;SDS011;62384;53.600;10.040;2023-02-28T15:51:02;2.90;;;1.40;;
74042;SDS011;62384;53.600;10.040;2023-02-28T15:53:42;3.08;;;1.50;;
74042;SDS011;62384;53.600;10.040;2023-02-28T15:58:58;3.05;;;1.95;;
74042;SDS011;62384;53.600;10.040;2023-02-28T16:01:30;4.18;;;1.45;;
74042;SDS011;62384;53.600;10.040;2023-02-28T16:03:59;4.28;;;1.60;;
74042;SDS011;62384;53.600;10.040;2023-02-28T16:06:32;2.53;;;1.27;;
74042;SDS011;62384;53.600;10.040;2023-02-28T16:09:02;3.63;;;1.50;;
74042;SDS011;62384;53.600;10.040;2023-02-28T16:11:28;5.78;;;1.80;;
74042;SDS011;62384;53.600;10.040;2023-02-28T16:13:55;5.65;;;2.10;;
74042;SDS011;62384;53.600;10.040;2023-02-28T16:16:22;6.32;;;1.83;;
74042;SDS011;62384;53.600;10.040;2023-02-28T16:18:50;3.15;;;1.77;;
74042;SDS011;62384;53.600;10.040;2023-02-28T16:21:18;3.42;;;1.63;;
74042;SDS011;62384;53.600;10.040;2023-02-28T16:23:43;8.20;;;3.17;;
74042;SDS011;62384;53.600;10.040;2023-02-28T16:26:16;7.47;;;2.65;;
74042;SDS011;62384;53.600;10.040;2023-02-28T16:28:45;7.20;;;2.45;;
74042;SDS011;62384;53.600;10.040;2023-02-28T16:31:10;4.55;;;2.00;;
74042;SDS011;62384;53.600;10.040;2023-02-28T16:33:41;3.90;;;1.52;;
74042;SDS011;62384;53.600;10.040;2023-02-28T16:36:09;4.00;;;1.30;;
74042;SDS011;62384;53.600;10.040;2023-02-28T16:38:41;3.25;;;1.80;;
74042;SDS011;62384;53.600;10.040;2023-02-28T16:41:07;5.55;;;1.60;;
74042;SDS011;62384;53.600;10.040;2023-02-28T16:43:44;4.88;;;1.60;;
74042;SDS011;62384;53.600;10.040;2023-02-28T16:46:11;2.83;;;1.10;;
74042;SDS011;62384;53.600;10.040;2023-02-28T16:48:37;5.05;;;1.50;;
74042;SDS011;62384;53.600;10.040;2023-02-28T16:51:02;2.75;;;1.48;;
74042;SDS011;62384;53.600;10.040;2023-02-28T16:53:29;3.28;;;1.75;;
74042;SDS011;62384;53.600;10.040;2023-02-28T16:55:54;2.50;;;1.40;;
74042;SDS011;62384;53.600;10.040;2023-02-28T16:58:20;3.50;;;1.55;;
74042;SDS011;62384;53.600;10.040;2023-02-28T17:00:49;6.50;;;1.90;;
74042;SDS011;62384;53.600;10.040;2023-02-28T17:03:23;4.47;;;1.90;;
74042;SDS011;62384;53.600;10.040;2023-02-28T17:05:50;10.40;;;2.13;;
74042;SDS011;62384;53.600;10.040;2023-02-28T17:08:16;4.82;;;1.77;;
74042;SDS011;62384;53.600;10.040;2023-02-28T17:10:42;12.65;;;2.40;;
74042;SDS011;62384;53.600;10.040;2023-02-28T17:13:07;4.10;;;1.55;;
74042;SDS011;62384;53.600;10.040;2023-02-28T17:15:35;3.22;;;1.60;;